Time;durP1;ratioP1;P1;durP2;ratioP2;P2;SDS_P1;SDS_P2;PMS_P1;PMS_P2;Temp;Humidity;BMP_temperature;BMP_pressure;BME280_temperature;BME280_humidity;BME280_pressure;Samples;Min_cycle;Max_cycle;Signal;HPM_P1;HPM_P2
2023/01/08 00:00:41;;;;;;;7.03;6.43;;;2.20;99.90;;;2.86;100.00;97438.78;5190747;28;21881;-62
2023/01/08 00:03:15;;;;;;;6.37;5.87;;;2.10;99.90;;;2.82;100.00;97434.28;5197593;28;20288;-62
2023/01/08 00:05:48;;;;;;;7.90;7.20;;;2.10;99.90;;;2.63;100.00;97427.78;5197545;28;20209;-62
2023/01/08 00:08:21;;;;;;;8.43;6.87;;;2.00;99.90;;;2.59;100.00;97425.75;5195657;28;20580;-61
2023/01/08 00:10:55;;;;;;;9.10;7.37;;;2.00;99.90;;;2.63;100.00;97427.78;5191923;28;20213;-63
2023/01/08 00:13:29;;;;;;;7.57;6.97;;;2.00;99.90;;;2.61;100.00;97428.41;5191494;28;20226;-61
2023/01/08 00:16:07;;;;;;;6.23;5.63;;;2.00;99.90;;;2.61;100.00;97431.81;5199379;28;20237;-62
2023/01/08 00:18:42;;;;;;;6.00;5.50;;;1.90;99.90;;;2.73;100.00;97434.41;5192506;28;20216;-62
2023/01/08 00:21:15;;;;;;;5.27;4.80;;;1.90;99.90;;;2.54;100.00;97439.63;5197593;28;20727;-63
2023/01/08 00:23:49;;;;;;;6.20;5.80;;;1.90;99.90;;;2.53;100.00;97435.34;5200287;28;20233;-61
2023/01/08 00:26:22;;;;;;;5.50;4.97;;;1.80;99.90;;;2.49;100.00;97423.25;5195073;28;20717;-63
2023/01/08 00:28:55;;;;;;;6.13;5.40;;;1.80;99.90;;;2.44;100.00;97419.47;5191627;28;20300;-60
2023/01/08 00:31:28;;;;;;;6.27;5.67;;;1.80;99.90;;;2.27;100.00;97409.66;5190519;28;20230;-60
2023/01/08 00:34:03;;;;;;;7.37;6.77;;;1.70;99.90;;;2.13;100.00;97419.50;5199026;28;20325;-60
2023/01/08 00:36:36;;;;;;;8.33;7.63;;;1.60;99.90;;;2.20;100.00;97416.75;5191024;28;20655;-61
2023/01/08 00:39:09;;;;;;;21.80;15.50;;;1.60;99.90;;;2.29;100.00;97403.09;5191748;28;20216;-62
2023/01/08 00:41:44;;;;;;;14.47;10.97;;;1.70;99.90;;;2.31;100.00;97404.09;5195897;28;20301;-62
2023/01/08 00:44:17;;;;;;;10.13;9.13;;;1.60;99.90;;;2.33;100.00;97405.13;5196163;28;20704;-60
2023/01/08 00:46:50;;;;;;;8.60;7.60;;;1.70;99.90;;;2.34;100.00;97406.88;5192496;28;20286;-61
2023/01/08 00:49:24;;;;;;;8.90;8.10;;;1.70;99.90;;;2.33;100.00;97398.44;5197087;28;20203;-62
2023/01/08 00:51:57;;;;;;;7.60;6.90;;;1.70;99.90;;;2.36;100.00;97397.78;5200145;28;20239;-61
2023/01/08 00:54:30;;;;;;;7.17;6.50;;;1.70;99.90;;;2.35;100.00;97398.56;5191060;28;20230;-60
2023/01/08 00:57:04;;;;;;;6.67;6.17;;;1.60;99.90;;;2.32;100.00;97389.13;5204963;28;20229;-60
2023/01/08 00:59:37;;;;;;;5.90;5.40;;;1.70;99.90;;;2.33;100.00;97390.88;5190265;28;20205;-60
2023/01/08 01:02:10;;;;;;;5.53;5.13;;;1.70;99.90;;;2.32;100.00;97384.06;5194438;28;20673;-64
2023/01/08 01:04:45;;;;;;;5.87;5.27;;;1.70;99.90;;;2.29;100.00;97372.84;5201243;28;20198;-60
2023/01/08 01:07:18;;;;;;;6.53;5.93;;;1.60;99.90;;;2.33;100.00;97354.69;5191321;28;20227;-62
2023/01/08 01:09:51;;;;;;;5.60;5.20;;;1.60;99.90;;;2.33;100.00;97365.66;5196727;28;20288;-62
2023/01/08 01:12:24;;;;;;;5.47;5.07;;;1.60;99.90;;;2.32;100.00;97357.94;5198848;28;20224;-62
2023/01/08 01:14:57;;;;;;;5.63;5.23;;;1.60;99.90;;;2.12;100.00;97362.28;5202501;28;20870;-61
2023/01/08 01:17:30;;;;;;;5.97;5.50;;;1.50;99.90;;;2.11;100.00;97347.91;5192471;28;20320;-61
2023/01/08 01:20:05;;;;;;;6.93;6.33;;;1.50;99.90;;;2.11;100.00;97358.00;5193211;28;20296;-62
2023/01/08 01:22:39;;;;;;;6.73;6.23;;;1.50;99.90;;;2.09;100.00;97349.44;5195634;28;20241;-61
2023/01/08 01:25:12;;;;;;;6.57;5.97;;;1.50;99.90;;;2.12;100.00;97359.78;5198633;28;20242;-63
2023/01/08 01:27:45;;;;;;;6.97;6.37;;;1.60;99.90;;;2.17;100.00;97361.00;5188059;28;20293;-60
2023/01/08 01:30:19;;;;;;;6.50;5.90;;;1.60;99.90;;;2.17;100.00;97355.97;5191007;28;20208;-60
2023/01/08 01:32:52;;;;;;;6.03;5.63;;;1.60;99.90;;;2.10;100.00;97352.84;5199575;28;20225;-59
2023/01/08 01:35:26;;;;;;;6.57;6.03;;;1.50;99.90;;;2.03;100.00;97352.34;5199906;28;20212;-63
2023/01/08 01:37:59;;;;;;;6.57;5.97;;;1.60;99.90;;;2.08;100.00;97352.69;5193959;28;20287;-58
2023/01/08 01:40:32;;;;;;;6.13;5.63;;;1.60;99.90;;;2.12;100.00;97357.25;5194663;28;20820;-61
2023/01/08 01:43:05;;;;;;;6.33;5.90;;;1.60;99.90;;;2.21;100.00;97357.97;5195508;28;20593;-61
2023/01/08 01:45:38;;;;;;;6.53;6.00;;;1.60;99.90;;;2.25;100.00;97367.53;5193179;28;20208;-62
2023/01/08 01:48:14;;;;;;;5.90;5.50;;;1.70;99.90;;;2.27;100.00;97372.72;5200619;28;20205;-61
2023/01/08 01:50:52;;;;;;;6.47;6.00;;;1.70;99.90;;;2.30;100.00;97372.09;5200670;28;20201;-61
2023/01/08 01:53:29;;;;;;;6.80;6.20;;;1.70;99.90;;;2.33;100.00;97359.72;5192418;28;20254;-62
2023/01/08 01:56:04;;;;;;;6.37;5.87;;;1.70;99.90;;;2.30;100.00;97362.00;5197510;28;20222;-62
2023/01/08 01:58:38;;;;;;;6.37;5.87;;;1.70;99.90;;;2.43;100.00;97368.16;5198333;28;20197;-62
2023/01/08 02:01:11;;;;;;;6.93;6.33;;;1.80;99.90;;;2.44;100.00;97369.03;5196432;28;20235;-61
2023/01/08 02:03:44;;;;;;;6.07;5.13;;;1.80;99.90;;;2.45;100.00;97371.66;5194133;28;20233;-61
2023/01/08 02:06:35;;;;;;;6.13;5.73;;;1.80;99.90;;;2.50;100.00;97368.66;5196082;28;20307;-62
2023/01/08 02:09:18;;;;;;;6.03;5.53;;;1.80;99.90;;;2.47;100.00;97362.59;5185871;28;20285;-62
2023/01/08 02:14:54;;;;;;;6.30;5.87;;;1.80;99.90;;;2.47;100.00;97359.19;5190882;28;20199;-61
2023/01/08 02:17:35;;;;;;;6.77;6.20;;;1.80;99.90;;;2.50;100.00;97354.38;5196029;28;20218;-61
2023/01/08 02:20:13;;;;;;;7.23;6.63;;;1.80;99.90;;;2.48;100.00;97354.25;5196434;28;20218;-61
2023/01/08 02:23:14;;;;;;;6.17;5.67;;;1.80;99.90;;;2.49;100.00;97355.16;5189425;28;20252;-61
2023/01/08 02:26:22;;;;;;;6.70;6.10;;;1.80;99.90;;;2.51;100.00;97351.09;5190393;28;20208;-62
2023/01/08 02:28:59;;;;;;;5.93;5.43;;;1.90;99.90;;;2.49;100.00;97334.97;5156959;28;20193;-61
2023/01/08 02:31:34;;;;;;;6.17;5.67;;;1.80;99.90;;;2.51;100.00;97325.88;5193473;28;20571;-61
2023/01/08 02:34:08;;;;;;;6.47;5.97;;;1.80;99.90;;;2.50;100.00;97329.16;5195105;28;20228;-61
2023/01/08 02:36:43;;;;;;;8.20;7.47;;;1.90;99.90;;;2.61;100.00;97322.47;5190714;28;20234;-62
2023/01/08 02:39:46;;;;;;;9.53;8.63;;;2.00;99.90;;;2.58;100.00;97318.06;5195961;28;20677;-61
2023/01/08 02:42:32;;;;;;;8.87;8.10;;;2.10;99.90;;;2.69;100.00;97304.63;5190507;28;20587;-62
2023/01/08 02:45:17;;;;;;;9.23;8.40;;;2.20;99.90;;;2.76;100.00;97303.47;5198110;28;20288;-62
2023/01/08 02:47:55;;;;;;;9.37;8.47;;;2.30;99.90;;;2.83;100.00;97308.22;5200384;28;20566;-62
2023/01/08 02:50:34;;;;;;;9.73;8.43;;;2.30;99.90;;;2.87;100.00;97292.56;5198291;28;20299;-63
2023/01/08 02:53:14;;;;;;;9.63;8.63;;;2.40;99.90;;;2.93;100.00;97282.06;5195841;28;20213;-60
2023/01/08 02:55:51;;;;;;;9.03;8.13;;;2.40;99.90;;;2.88;100.00;97268.19;5199750;28;20209;-61
2023/01/08 02:58:30;;;;;;;8.70;8.00;;;2.40;99.90;;;2.92;100.00;97266.03;5195353;28;20300;-60
2023/01/08 03:01:06;;;;;;;8.70;7.90;;;2.50;99.90;;;2.94;100.00;97259.44;5199464;28;20205;-61
2023/01/08 03:03:43;;;;;;;8.03;7.43;;;2.50;99.90;;;2.99;100.00;97247.19;5196230;28;20232;-61
2023/01/08 03:06:20;;;;;;;7.80;7.10;;;2.50;99.90;;;3.05;100.00;97246.75;5190082;28;20251;-59
2023/01/08 03:08:54;;;;;;;8.20;7.50;;;2.60;99.90;;;3.09;100.00;97243.69;5193369;28;20304;-62
2023/01/08 03:11:37;;;;;;;8.30;7.23;;;2.60;99.90;;;3.16;100.00;97240.88;5195938;28;20206;-61
2023/01/08 03:14:20;;;;;;;8.03;7.23;;;2.70;99.90;;;3.16;100.00;97231.66;5188801;28;20695;-62
2023/01/08 03:17:00;;;;;;;8.83;8.03;;;2.60;99.90;;;3.15;100.00;97240.00;5199264;28;20243;-61
2023/01/08 03:19:41;;;;;;;9.23;8.33;;;2.70;99.90;;;3.19;100.00;97242.75;5190262;28;20224;-61
2023/01/08 03:22:16;;;;;;;8.77;7.93;;;2.70;99.90;;;3.24;100.00;97234.75;5193183;28;20316;-61
2023/01/08 03:24:53;;;;;;;7.77;7.13;;;2.80;99.90;;;3.38;100.00;97236.66;5203241;28;20211;-61
2023/01/08 03:27:29;;;;;;;8.60;7.80;;;2.80;99.90;;;3.37;100.00;97232.38;5200197;28;20197;-61
2023/01/08 03:30:06;;;;;;;7.77;7.17;;;2.80;99.90;;;3.43;100.00;97231.06;5197155;28;20583;-61
2023/01/08 03:32:41;;;;;;;6.93;6.33;;;2.70;99.90;;;3.42;100.00;97232.72;5188712;28;20246;-61
2023/01/08 03:35:21;;;;;;;7.37;6.77;;;2.70;99.90;;;3.37;100.00;97232.38;5188441;28;20186;-61
2023/01/08 03:38:00;;;;;;;7.40;6.80;;;2.70;99.90;;;3.36;100.00;97232.28;5189255;28;20242;-61
2023/01/08 03:40:39;;;;;;;8.83;7.37;;;2.60;99.90;;;3.33;100.00;97225.34;5197083;28;20473;-61
2023/01/08 03:43:12;;;;;;;10.27;9.20;;;2.60;99.90;;;3.32;100.00;97217.63;5192592;28;20716;-61
2023/01/08 03:45:50;;;;;;;9.30;8.40;;;2.60;99.90;;;3.26;100.00;97222.22;5192051;28;20297;-61
2023/01/08 03:48:25;;;;;;;7.27;6.57;;;2.60;99.90;;;3.19;100.00;97217.50;5195451;28;20198;-61
2023/01/08 03:50:59;;;;;;;7.20;6.53;;;2.50;99.90;;;3.15;100.00;97209.72;5202512;28;20235;-61
2023/01/08 03:53:32;;;;;;;6.77;6.17;;;2.50;99.90;;;3.21;100.00;97208.41;5197320;28;20312;-61
2023/01/08 03:56:06;;;;;;;6.97;6.37;;;2.60;99.90;;;3.28;100.00;97193.81;5190493;28;20718;-61
2023/01/08 03:58:39;;;;;;;7.43;6.83;;;2.60;99.90;;;3.31;100.00;97193.16;5198264;28;20624;-61
2023/01/08 04:01:13;;;;;;;7.70;7.03;;;2.60;99.90;;;3.33;100.00;97199.22;5189357;28;20491;-61
2023/01/08 04:03:46;;;;;;;6.50;5.93;;;2.60;99.90;;;3.36;100.00;97199.44;5189670;28;20241;-61
2023/01/08 04:06:19;;;;;;;6.00;5.60;;;2.60;99.90;;;3.32;100.00;97202.47;5196117;28;20209;-62
2023/01/08 04:08:52;;;;;;;6.17;5.70;;;2.60;99.90;;;3.34;100.00;97196.78;5190308;28;20607;-62
2023/01/08 04:11:26;;;;;;;5.67;5.27;;;2.70;99.90;;;3.39;100.00;97199.66;5197432;28;20240;-62
2023/01/08 04:13:59;;;;;;;5.73;5.23;;;2.70;99.90;;;3.43;100.00;97198.22;5194559;28;20702;-61
2023/01/08 04:16:33;;;;;;;5.87;5.47;;;2.70;99.90;;;3.42;100.00;97196.47;5197917;28;20205;-62
2023/01/08 04:19:07;;;;;;;6.30;5.77;;;2.70;99.90;;;3.38;100.00;97197.91;5194364;28;20271;-62
2023/01/08 04:21:40;;;;;;;4.97;4.67;;;2.70;99.90;;;3.38;100.00;97192.88;5191898;28;20879;-62
2023/01/08 04:24:13;;;;;;;5.60;5.13;;;2.70;99.90;;;3.42;100.00;97194.81;5199194;28;20201;-59
2023/01/08 04:26:47;;;;;;;5.73;5.33;;;2.70;99.90;;;3.43;100.00;97198.22;5201151;28;20287;-62
2023/01/08 04:29:20;;;;;;;5.97;5.40;;;2.70;99.90;;;3.45;100.00;97182.44;5192439;28;20202;-61
2023/01/08 04:31:55;;;;;;;6.47;5.90;;;2.80;99.90;;;3.48;100.00;97180.13;5200776;28;20202;-62
2023/01/08 04:34:28;;;;;;;5.87;5.37;;;2.80;99.90;;;3.54;100.00;97180.56;5200554;28;20295;-62
2023/01/08 04:37:01;;;;;;;6.57;5.97;;;2.90;99.90;;;3.63;100.00;97189.59;5200894;28;20198;-62
2023/01/08 04:39:35;;;;;;;7.23;6.73;;;2.80;99.90;;;3.66;100.00;97189.78;5201765;28;20319;-61
2023/01/08 04:42:08;;;;;;;7.53;6.87;;;2.90;99.90;;;3.60;100.00;97191.09;5198862;28;20232;-62
2023/01/08 04:44:41;;;;;;;7.23;6.63;;;2.80;99.90;;;3.56;100.00;97191.66;5200983;28;20210;-61
2023/01/08 04:47:15;;;;;;;6.87;6.27;;;2.80;99.90;;;3.52;100.00;97192.22;5199184;28;20204;-62
2023/01/08 04:49:48;;;;;;;7.17;6.57;;;2.80;99.90;;;3.47;100.00;97193.53;5195777;28;20562;-62
2023/01/08 04:52:21;;;;;;;7.13;6.40;;;2.70;99.90;;;3.57;100.00;97190.00;5195574;28;20226;-61
2023/01/08 04:54:54;;;;;;;7.73;7.03;;;2.80;99.90;;;3.57;100.00;97198.47;5198843;28;20300;-62
2023/01/08 04:57:27;;;;;;;6.63;6.13;;;2.90;99.90;;;3.61;100.00;97192.88;5202448;28;20641;-61
2023/01/08 05:00:00;;;;;;;8.33;7.63;;;2.90;99.90;;;3.64;100.00;97189.72;5201110;28;20198;-62
2023/01/08 05:02:35;;;;;;;7.70;7.00;;;2.90;99.90;;;3.65;100.00;97193.09;5196047;28;20233;-62
2023/01/08 05:05:09;;;;;;;6.60;6.00;;;2.90;99.90;;;3.65;100.00;97203.22;5195950;28;20344;-62
2023/01/08 05:07:42;;;;;;;7.83;7.23;;;2.90;99.90;;;3.60;100.00;97197.81;5192273;28;20293;-61
2023/01/08 05:10:15;;;;;;;7.03;6.43;;;2.90;99.90;;;3.59;100.00;97198.59;5199221;28;20202;-61
2023/01/08 05:12:48;;;;;;;7.40;6.80;;;3.00;99.90;;;3.70;100.00;97201.91;5195830;28;20246;-60
2023/01/08 05:15:21;;;;;;;7.53;6.83;;;3.10;99.90;;;3.92;100.00;97205.22;5196771;28;20298;-61
2023/01/08 05:18:00;;;;;;;8.40;7.63;;;3.20;99.90;;;4.10;100.00;97220.81;5200276;28;20232;-60
2023/01/08 05:20:34;;;;;;;8.53;7.83;;;3.20;99.90;;;4.09;100.00;97229.16;5205106;28;20583;-60
2023/01/08 05:23:07;;;;;;;8.57;7.80;;;3.10;99.90;;;4.04;100.00;97245.66;5192728;28;20325;-60
2023/01/08 05:25:40;;;;;;;8.53;7.73;;;3.10;99.90;;;4.03;100.00;97243.88;5196187;28;20212;-62
2023/01/08 05:28:13;;;;;;;8.07;7.23;;;3.10;99.90;;;4.02;100.00;97250.59;5197902;28;20570;-62
2023/01/08 05:30:46;;;;;;;8.17;7.37;;;3.00;99.90;;;3.89;100.00;97240.34;5192486;28;20207;-62
2023/01/08 05:33:20;;;;;;;7.90;7.30;;;3.10;99.90;;;3.72;100.00;97234.09;5200138;28;20595;-62
2023/01/08 05:35:54;;;;;;;8.27;7.47;;;3.00;99.90;;;3.87;100.00;97225.88;5196720;28;20626;-61
2023/01/08 05:38:27;;;;;;;8.20;7.40;;;3.10;99.90;;;3.63;100.00;97235.06;5200735;28;20226;-62
2023/01/08 05:41:00;;;;;;;8.57;7.83;;;3.00;99.90;;;3.63;100.00;97230.00;5200298;28;20245;-62
2023/01/08 05:43:33;;;;;;;8.00;7.40;;;3.00;99.90;;;3.55;100.00;97240.44;5198521;28;20246;-62
2023/01/08 05:46:06;;;;;;;7.90;7.10;;;3.00;99.90;;;3.63;100.00;97230.00;5198448;28;20642;-62
2023/01/08 05:48:41;;;;;;;7.80;7.10;;;3.00;99.90;;;3.57;100.00;97228.78;5198766;28;20217;-62
2023/01/08 05:51:14;;;;;;;6.23;5.73;;;3.00;99.90;;;3.69;100.00;97226.31;5200367;28;20296;-62
2023/01/08 05:53:47;;;;;;;6.70;5.90;;;3.10;99.90;;;3.75;100.00;97226.75;5200232;28;20590;-62
2023/01/08 05:56:21;;;;;;;7.57;6.97;;;3.20;99.90;;;4.01;100.00;97228.63;5194168;28;20209;-62
2023/01/08 05:58:54;;;;;;;6.33;5.83;;;3.30;99.90;;;3.90;100.00;97214.31;5193997;28;20317;-62
2023/01/08 06:01:27;;;;;;;6.60;6.00;;;3.30;99.90;;;3.91;100.00;97223.66;5199996;28;20206;-61
2023/01/08 06:04:02;;;;;;;5.73;5.23;;;3.30;99.90;;;3.97;100.00;97224.09;5197965;28;20654;-62
2023/01/08 06:06:35;;;;;;;7.60;7.00;;;3.30;99.90;;;4.06;100.00;97227.31;5199978;28;20259;-62
2023/01/08 06:09:08;;;;;;;8.27;7.57;;;3.40;99.90;;;3.93;100.00;97228.84;5193577;28;20205;-62
2023/01/08 06:11:42;;;;;;;7.57;6.87;;;3.30;99.90;;;3.98;100.00;97220.81;5195151;28;20210;-61
2023/01/08 06:14:15;;;;;;;7.47;6.87;;;3.30;99.90;;;3.87;100.00;97210.72;5189926;28;20253;-62
2023/01/08 06:16:48;;;;;;;7.00;6.40;;;3.30;99.90;;;4.02;100.00;97207.59;5191562;28;20310;-62
2023/01/08 06:19:23;;;;;;;7.83;7.10;;;3.40;99.90;;;4.20;100.00;97213.09;5194415;28;20225;-62
2023/01/08 06:21:56;;;;;;;9.30;8.50;;;3.50;99.90;;;4.24;100.00;97214.22;5194266;28;20288;-62
2023/01/08 06:24:29;;;;;;;9.03;8.23;;;3.60;99.90;;;4.24;100.00;97226.84;5196654;28;20209;-62
2023/01/08 06:27:03;;;;;;;9.00;8.20;;;3.60;99.90;;;4.20;100.00;97207.16;5198522;28;20259;-61
2023/01/08 06:29:36;;;;;;;8.37;7.67;;;3.50;99.90;;;4.14;100.00;97201.66;5192408;28;20199;-62
2023/01/08 06:32:09;;;;;;;7.93;7.33;;;3.50;99.90;;;4.15;100.00;97198.34;5192434;28;20222;-61
2023/01/08 06:34:43;;;;;;;8.47;7.73;;;3.50;99.90;;;4.23;100.00;97192.19;5194750;28;20206;-62
2023/01/08 06:37:16;;;;;;;8.87;8.07;;;3.60;99.90;;;4.36;100.00;97202.41;5189024;28;20371;-62
2023/01/08 06:39:49;;;;;;;9.90;8.97;;;3.70;99.90;;;4.48;100.00;97189.72;5198541;28;20231;-61
2023/01/08 06:42:22;;;;;;;10.03;9.13;;;3.70;99.90;;;4.45;100.00;97157.50;5195002;28;20594;-61
2023/01/08 06:44:55;;;;;;;9.13;8.33;;;3.70;99.90;;;4.73;100.00;97151.81;5195241;28;20297;-61
2023/01/08 06:47:28;;;;;;;8.57;7.87;;;3.90;99.90;;;4.81;100.00;97181.06;5198528;28;20194;-62
2023/01/08 06:50:05;;;;;;;8.13;7.43;;;4.10;99.90;;;4.73;100.00;97204.97;5190662;28;20278;-62
2023/01/08 06:52:38;;;;;;;7.37;6.77;;;4.10;99.90;;;4.38;100.00;97207.56;5194661;28;20613;-61
2023/01/08 06:55:11;;;;;;;8.10;7.40;;;3.90;99.90;;;4.36;100.00;97217.59;5193728;28;20202;-62
2023/01/08 06:57:44;;;;;;;8.47;7.77;;;3.90;99.90;;;4.38;100.00;97223.66;5202883;28;20201;-62
2023/01/08 07:00:17;;;;;;;8.87;8.07;;;3.90;99.90;;;4.39;100.00;97227.91;5195584;28;20217;-62
2023/01/08 07:02:50;;;;;;;8.90;8.20;;;4.00;99.90;;;4.52;100.00;97209.41;5201494;28;20712;-62
2023/01/08 07:05:25;;;;;;;9.03;8.13;;;4.10;99.90;;;4.87;100.00;97206.78;5198587;28;20237;-62
2023/01/08 07:07:58;;;;;;;9.30;8.50;;;4.40;99.90;;;5.02;100.00;97203.53;5198975;28;20208;-62
2023/01/08 07:10:31;;;;;;;9.00;8.20;;;4.60;99.90;;;5.12;100.00;97208.44;5197893;28;20212;-62
2023/01/08 07:13:06;;;;;;;8.03;7.43;;;4.70;99.90;;;5.29;100.00;97217.16;5202403;28;20309;-62
2023/01/08 07:15:40;;;;;;;7.57;6.97;;;4.80;99.90;;;5.34;100.00;97219.22;5195923;28;20735;-62
2023/01/08 07:18:14;;;;;;;8.37;7.57;;;4.90;99.90;;;5.41;100.00;97228.13;5196648;28;20562;-62
2023/01/08 07:20:49;;;;;;;7.97;7.27;;;5.00;99.90;;;5.48;100.00;97232.81;5194245;28;20372;-62
2023/01/08 07:23:22;;;;;;;9.03;8.17;;;5.10;99.90;;;5.53;100.00;97212.84;5199824;28;20712;-62
2023/01/08 07:25:55;;;;;;;8.80;8.00;;;5.10;99.90;;;5.54;100.00;97219.66;5197675;28;20202;-62
2023/01/08 07:28:29;;;;;;;9.70;8.80;;;5.10;99.90;;;5.57;100.00;97214.78;5200643;28;20433;-62
2023/01/08 07:31:05;;;;;;;9.37;8.47;;;5.20;99.90;;;5.60;100.00;97220.06;5206870;28;20204;-62
2023/01/08 07:33:38;;;;;;;9.37;8.53;;;5.20;99.90;;;5.60;100.00;97223.47;5199458;28;20724;-61
2023/01/08 07:36:14;;;;;;;9.27;8.40;;;5.20;99.90;;;5.65;100.00;97228.84;5202480;28;20237;-62
2023/01/08 07:38:47;;;;;;;8.60;7.80;;;5.30;99.90;;;5.68;100.00;97223.97;5195750;28;20224;-62
2023/01/08 07:41:20;;;;;;;8.70;7.90;;;5.30;99.90;;;5.70;100.00;97222.44;5197081;28;20205;-60
2023/01/08 07:43:53;;;;;;;9.30;8.47;;;5.30;99.90;;;5.72;100.00;97210.72;5194406;28;20236;-60
2023/01/08 07:46:26;;;;;;;9.47;8.37;;;5.30;99.90;;;5.76;100.00;97207.63;5190224;28;20731;-62
2023/01/08 07:49:00;;;;;;;8.20;7.40;;;5.40;99.90;;;5.79;100.00;97212.88;5187004;28;20719;-62
2023/01/08 07:51:34;;;;;;;7.93;7.33;;;5.40;99.90;;;5.84;100.00;97215.72;5194704;28;20212;-63
2023/01/08 07:54:07;;;;;;;8.03;7.27;;;5.50;99.90;;;5.88;100.00;97210.94;5200380;28;20308;-61
2023/01/08 07:56:40;;;;;;;7.70;7.10;;;5.50;99.90;;;5.94;100.00;97224.81;5198590;28;20601;-63
2023/01/08 07:59:13;;;;;;;8.47;7.67;;;5.60;99.90;;;5.99;100.00;97216.75;5192168;28;20232;-63
2023/01/08 08:01:46;;;;;;;8.63;7.87;;;5.60;99.90;;;5.99;100.00;97221.81;5185408;28;20205;-63
2023/01/08 08:04:19;;;;;;;8.97;8.07;;;5.60;99.90;;;6.05;100.00;97224.72;5193839;28;20207;-63
2023/01/08 08:06:54;;;;;;;10.13;9.23;;;5.60;99.90;;;6.00;100.00;97217.59;5197076;28;20595;-63
2023/01/08 08:09:27;;;;;;;9.30;8.40;;;5.50;99.90;;;5.94;100.00;97217.22;5194411;28;20284;-63
2023/01/08 08:12:00;;;;;;;8.10;7.30;;;5.50;99.90;;;5.94;100.00;97217.22;5198731;28;20226;-63
2023/01/08 08:14:33;;;;;;;8.00;7.20;;;5.50;99.90;;;5.96;100.00;97216.53;5198976;28;20205;-63
2023/01/08 08:17:06;;;;;;;8.10;7.33;;;5.50;99.90;;;5.99;100.00;97215.88;5196003;28;20692;-63
2023/01/08 08:19:42;;;;;;;8.47;7.77;;;5.50;99.90;;;6.02;100.00;97210.97;5193530;28;20600;-63
2023/01/08 08:22:16;;;;;;;7.33;6.63;;;5.60;99.90;;;6.06;100.00;97202.78;5197537;28;20669;-61
2023/01/08 08:24:49;;;;;;;7.50;6.80;;;5.70;99.90;;;6.14;100.00;97191.47;5196918;28;20216;-63
2023/01/08 08:27:23;;;;;;;6.50;6.00;;;5.70;99.90;;;6.21;100.00;97182.56;5196086;28;20321;-63
2023/01/08 08:29:56;;;;;;;7.07;6.47;;;5.80;99.90;;;6.26;100.00;97177.00;5197134;28;20201;-62
2023/01/08 08:32:29;;;;;;;9.73;8.83;;;5.90;99.90;;;6.56;100.00;97187.31;5196904;28;20228;-62
2023/01/08 08:35:03;;;;;;;9.93;9.13;;;6.00;99.90;;;6.46;100.00;97184.97;5196444;28;20222;-65
2023/01/08 08:37:37;;;;;;;12.03;10.93;;;5.90;99.90;;;6.42;100.00;97193.19;5194094;28;20201;-65
2023/01/08 08:40:11;;;;;;;11.97;10.77;;;5.90;99.90;;;6.40;100.00;97193.09;5196349;28;20399;-62
2023/01/08 08:42:44;;;;;;;11.47;9.80;;;5.90;99.90;;;6.26;100.00;97192.22;5197436;28;20306;-63
2023/01/08 08:45:17;;;;;;;10.33;9.37;;;5.80;99.90;;;6.16;100.00;97182.28;5195340;28;20642;-62
2023/01/08 08:47:51;;;;;;;11.00;10.00;;;5.70;99.90;;;6.12;100.00;97182.88;5201178;28;20596;-63
2023/01/08 08:50:24;;;;;;;10.53;9.57;;;5.70;99.90;;;6.19;100.00;97181.63;5194650;28;20208;-63
2023/01/08 08:53:01;;;;;;;9.93;9.03;;;5.70;99.90;;;6.22;100.00;97182.69;5200624;28;20746;-64
2023/01/08 08:55:34;;;;;;;10.27;9.27;;;5.80;99.90;;;6.29;100.00;97177.19;5194003;28;20194;-61
2023/01/08 08:58:11;;;;;;;9.23;8.40;;;5.80;99.90;;;6.32;100.00;97168.88;5187682;28;20222;-63
2023/01/08 09:00:44;;;;;;;12.47;11.30;;;5.90;99.90;;;6.38;100.00;97170.94;5194499;28;20304;-64
2023/01/08 09:03:18;;;;;;;12.30;11.20;;;5.90;99.90;;;6.42;100.00;97177.97;5196226;28;20673;-64
2023/01/08 09:05:51;;;;;;;11.60;10.50;;;5.90;99.90;;;6.47;100.00;97176.59;5190568;28;20639;-63
2023/01/08 09:08:25;;;;;;;12.37;11.10;;;6.00;99.90;;;6.50;100.00;97167.50;5198916;28;20324;-63
2023/01/08 09:10:58;;;;;;;12.17;11.07;;;6.00;99.90;;;6.52;100.00;97176.09;5198264;28;20689;-60
2023/01/08 09:13:32;;;;;;;14.00;12.83;;;6.00;99.90;;;6.49;100.00;97165.72;5195517;28;20309;-62
2023/01/08 09:16:05;;;;;;;10.97;9.97;;;5.90;99.90;;;6.49;100.00;97175.00;5202653;28;20635;-64
2023/01/08 09:18:39;;;;;;;9.67;8.83;;;6.00;99.90;;;6.51;100.00;97165.84;5200328;28;20249;-63
2023/01/08 09:21:12;;;;;;;9.17;8.27;;;6.00;99.90;;;6.54;100.00;97163.47;5198199;28;20248;-64
2023/01/08 09:23:48;;;;;;;9.63;8.83;;;6.10;99.90;;;6.58;100.00;97160.38;5193748;28;20742;-63
2023/01/08 09:26:21;;;;;;;8.87;8.07;;;6.10;99.90;;;6.64;100.00;97164.91;5201609;28;20202;-63
2023/01/08 09:28:54;;;;;;;11.30;10.07;;;6.10;99.90;;;6.66;100.00;97164.22;5198501;28;20661;-63
2023/01/08 09:31:27;;;;;;;11.27;10.07;;;6.20;99.90;;;6.69;100.00;97159.31;5197573;28;20301;-62
2023/01/08 09:34:01;;;;;;;10.97;9.93;;;6.20;99.90;;;6.76;100.00;97164.00;5197200;28;20345;-63
2023/01/08 09:36:34;;;;;;;12.43;11.33;;;6.30;99.90;;;6.82;100.00;97160.94;5194843;28;20283;-63
2023/01/08 09:39:09;;;;;;;12.00;10.90;;;6.30;99.90;;;6.77;100.00;97163.19;5195935;28;20206;-63
2023/01/08 09:41:46;;;;;;;15.30;13.97;;;6.20;99.90;;;6.67;100.00;97160.03;5195804;28;20224;-64
2023/01/08 09:44:24;;;;;;;15.87;14.47;;;6.10;99.90;;;6.67;100.00;97160.03;5198535;28;20645;-63
2023/01/08 09:46:59;;;;;;;18.20;16.60;;;6.10;99.90;;;6.69;100.00;97154.25;5198004;28;20204;-61
2023/01/08 09:49:41;;;;;;;17.23;15.47;;;6.10;99.90;;;6.66;100.00;97148.97;5198520;28;20205;-64
2023/01/08 09:52:15;;;;;;;17.30;15.70;;;6.10;99.90;;;6.63;100.00;97148.78;5193210;28;20214;-64
2023/01/08 09:54:50;;;;;;;16.03;14.53;;;6.10;99.90;;;6.71;100.00;97160.31;5188232;28;20346;-64
2023/01/08 09:57:23;;;;;;;21.17;19.10;;;6.10;99.90;;;6.70;100.00;97152.59;5196758;28;20203;-61
2023/01/08 09:59:56;;;;;;;18.40;16.60;;;6.10;99.90;;;6.63;100.00;97158.09;5192659;28;20299;-62
2023/01/08 10:02:39;;;;;;;18.27;16.40;;;6.00;99.90;;;6.63;100.00;97156.41;5193276;28;20226;-63
2023/01/08 10:05:16;;;;;;;17.83;16.03;;;6.10;99.90;;;6.64;100.00;97155.66;5192387;28;20202;-64
2023/01/08 10:07:49;;;;;;;18.50;16.70;;;6.10;99.90;;;6.68;100.00;97149.97;5195372;28;20828;-64
2023/01/08 10:10:28;;;;;;;16.00;14.60;;;6.10;99.90;;;6.67;100.00;97155.84;5191781;28;20221;-63
2023/01/08 10:13:01;;;;;;;14.00;12.80;;;6.10;99.90;;;6.70;100.00;97153.47;5193600;28;20232;-63
2023/01/08 10:15:34;;;;;;;13.80;12.50;;;6.10;99.90;;;6.67;100.00;97153.28;5192712;28;20217;-63
2023/01/08 10:18:11;;;;;;;14.27;12.97;;;6.10;99.90;;;6.69;100.00;97154.25;5195041;28;20237;-64
2023/01/08 10:20:44;;;;;;;13.67;12.47;;;6.10;99.90;;;6.74;100.00;97155.41;5191946;28;20316;-62
2023/01/08 10:23:21;;;;;;;13.40;12.20;;;6.20;99.90;;;6.74;100.00;97157.06;5192620;28;20226;-63
2023/01/08 10:25:59;;;;;;;18.73;16.93;;;6.20;99.90;;;6.73;100.00;97146.03;5193512;28;20221;-64
2023/01/08 10:28:34;;;;;;;13.57;12.27;;;6.20;99.90;;;6.66;100.00;97148.97;5189054;28;20215;-60
2023/01/08 10:31:14;;;;;;;12.47;11.37;;;6.20;99.90;;;6.74;100.00;97146.91;5191099;28;20197;-64
2023/01/08 10:33:49;;;;;;;11.80;10.70;;;6.20;99.90;;;6.78;100.00;97141.22;5200125;28;20233;-63
2023/01/08 10:36:26;;;;;;;11.37;10.37;;;6.20;99.90;;;6.84;100.00;97138.16;5202799;28;20624;-64
2023/01/08 10:39:01;;;;;;;13.60;12.23;;;6.30;99.90;;;6.86;100.00;97132.41;5192201;28;20216;-65
2023/01/08 10:41:39;;;;;;;12.80;11.50;;;6.30;99.90;;;6.87;100.00;97133.31;5198808;28;20225;-62
2023/01/08 10:44:17;;;;;;;11.40;9.80;;;6.40;99.90;;;6.90;100.00;97136.03;5196704;28;20208;-63
2023/01/08 10:46:54;;;;;;;10.80;9.80;;;6.50;99.90;;;6.99;100.00;97123.84;5199377;28;20696;-64
2023/01/08 10:49:32;;;;;;;10.37;9.37;;;6.50;99.90;;;7.11;100.00;97124.56;5199385;28;20332;-64
2023/01/08 10:52:11;;;;;;;9.67;8.77;;;6.60;99.90;;;7.20;100.00;97127.63;5198145;28;20231;-64
2023/01/08 10:54:44;;;;;;;14.27;12.57;;;6.70;99.90;;;7.31;100.00;97122.31;5191860;28;20208;-63
2023/01/08 10:57:28;;;;;;;18.73;16.30;;;6.70;99.90;;;7.36;100.00;97115.81;5197985;28;20587;-62